Time;durP1;ratioP1;P1;durP2;ratioP2;P2;SDS_P1;SDS_P2;PMS_P1;PMS_P2;Temp;Humidity;BMP_temperature;BMP_pressure;BME280_temperature;BME280_humidity;BME280_pressure;Samples;Min_cycle;Max_cycle;Signal;HPM_P1;HPM_P2
2022/03/30 00:01:37;;;;;;;70.05;33.95;;;;;;;;;;7376775;19;20694;-77
2022/03/30 00:04:02;;;;;;;67.07;35.50;;;;;;;;;;7343505;19;20007;-79
2022/03/30 00:06:27;;;;;;;61.08;31.27;;;;;;;;;;7367972;19;20010;-78
2022/03/30 00:08:52;;;;;;;66.18;32.70;;;;;;;;;;7361619;19;20825;-78
2022/03/30 00:11:18;;;;;;;58.60;33.55;;;;;;;;;;7370199;19;20024;-79
2022/03/30 00:13:43;;;;;;;64.55;32.70;;;;;;;;;;7374121;19;20070;-78
2022/03/30 00:16:09;;;;;;;58.08;31.77;;;;;;;;;;7376626;19;20035;-80
2022/03/30 00:18:34;;;;;;;52.15;29.98;;;;;;;;;;7301374;19;20373;-82
2022/03/30 00:21:00;;;;;;;60.80;33.55;;;;;;;;;;7379887;19;20007;-80
2022/03/30 00:23:25;;;;;;;64.33;31.77;;;;;;;;;;7371578;19;19999;-79
2022/03/30 00:25:50;;;;;;;63.17;33.28;;;;;;;;;;7366384;19;20359;-81
2022/03/30 00:28:15;;;;;;;59.55;31.63;;;;;;;;;;7362361;19;20870;-78
2022/03/30 00:30:41;;;;;;;65.18;34.40;;;;;;;;;;7371694;19;20390;-79
2022/03/30 00:33:06;;;;;;;65.50;33.65;;;;;;;;;;7353472;19;20370;-78
2022/03/30 00:35:31;;;;;;;62.30;35.00;;;;;;;;;;7381784;19;20015;-79
2022/03/30 00:37:56;;;;;;;69.68;34.90;;;;;;;;;;7373842;19;20006;-79
2022/03/30 00:40:21;;;;;;;68.33;35.63;;;;;;;;;;7376429;19;20058;-78
2022/03/30 00:42:47;;;;;;;65.25;34.50;;;;;;;;;;7360657;19;20275;-78
2022/03/30 00:45:12;;;;;;;63.35;33.13;;;;;;;;;;7364881;19;20557;-78
2022/03/30 00:47:38;;;;;;;67.10;35.20;;;;;;;;;;7357807;19;20007;-77
2022/03/30 00:50:04;;;;;;;68.38;35.08;;;;;;;;;;7367449;19;20050;-81
2022/03/30 00:52:29;;;;;;;70.53;36.55;;;;;;;;;;7361596;19;20018;-81
2022/03/30 00:54:55;;;;;;;67.55;35.72;;;;;;;;;;7378495;19;20010;-78
2022/03/30 00:57:21;;;;;;;71.53;36.13;;;;;;;;;;7376582;19;20009;-78
2022/03/30 00:59:47;;;;;;;69.85;37.20;;;;;;;;;;7355724;19;20059;-77
2022/03/30 01:02:13;;;;;;;66.72;35.58;;;;;;;;;;7314758;19;20013;-81
2022/03/30 01:04:38;;;;;;;74.10;35.67;;;;;;;;;;7370490;19;20450;-78
2022/03/30 01:07:04;;;;;;;66.05;34.92;;;;;;;;;;7369849;19;20015;-81
2022/03/30 01:09:29;;;;;;;73.03;36.78;;;;;;;;;;7360933;19;20013;-78
2022/03/30 01:11:55;;;;;;;65.83;34.13;;;;;;;;;;7359507;19;20018;-79
2022/03/30 01:14:20;;;;;;;70.18;35.00;;;;;;;;;;7375512;19;20263;-79
2022/03/30 01:16:46;;;;;;;73.85;35.00;;;;;;;;;;7355135;19;20036;-79
2022/03/30 01:19:11;;;;;;;59.50;33.13;;;;;;;;;;7373280;19;19999;-77
2022/03/30 01:21:38;;;;;;;67.25;35.55;;;;;;;;;;7375575;19;20015;-79
2022/03/30 01:24:04;;;;;;;66.40;34.70;;;;;;;;;;7366707;19;20769;-78
2022/03/30 01:26:30;;;;;;;65.85;36.20;;;;;;;;;;7360978;19;20007;-80
2022/03/30 01:28:55;;;;;;;67.97;34.42;;;;;;;;;;7357829;19;20006;-81
2022/03/30 01:34:05;;;;;;;69.57;37.08;;;;;;;;;;7357410;19;20066;-80
2022/03/30 01:36:30;;;;;;;65.68;35.83;;;;;;;;;;7378511;19;20493;-77
2022/03/30 01:38:55;;;;;;;76.40;35.95;;;;;;;;;;7372395;19;20011;-78
2022/03/30 01:41:20;;;;;;;65.90;34.53;;;;;;;;;;7360160;19;20018;-77
2022/03/30 01:43:46;;;;;;;67.25;36.65;;;;;;;;;;7361087;19;20290;-80
2022/03/30 01:46:11;;;;;;;69.43;36.73;;;;;;;;;;7370102;19;20023;-77
2022/03/30 01:48:36;;;;;;;72.10;36.63;;;;;;;;;;7344310;19;20596;-83
2022/03/30 01:51:01;;;;;;;72.60;35.63;;;;;;;;;;7372281;19;20278;-80
2022/03/30 01:53:27;;;;;;;63.88;34.92;;;;;;;;;;7378002;19;20018;-77
2022/03/30 01:55:52;;;;;;;77.38;36.85;;;;;;;;;;7366931;19;20031;-79
2022/03/30 01:58:17;;;;;;;67.10;35.72;;;;;;;;;;7353504;19;20013;-81
2022/03/30 02:00:43;;;;;;;76.68;37.50;;;;;;;;;;7371112;19;20013;-79
2022/03/30 02:03:08;;;;;;;84.30;40.35;;;;;;;;;;7333929;19;20093;-82
2022/03/30 02:05:33;;;;;;;71.85;37.20;;;;;;;;;;7373638;19;20006;-78
2022/03/30 02:07:58;;;;;;;64.67;34.80;;;;;;;;;;7380785;19;20006;-79
2022/03/30 02:10:24;;;;;;;67.47;35.13;;;;;;;;;;7364733;19;20273;-78
2022/03/30 02:12:49;;;;;;;67.20;33.97;;;;;;;;;;7381566;19;20294;-81
2022/03/30 02:15:14;;;;;;;70.82;35.58;;;;;;;;;;7382535;19;20335;-80
2022/03/30 02:17:40;;;;;;;67.97;35.08;;;;;;;;;;7353005;19;20026;-78
2022/03/30 02:20:06;;;;;;;65.68;34.22;;;;;;;;;;7371122;19;21752;-80
2022/03/30 02:22:31;;;;;;;63.22;32.28;;;;;;;;;;7383353;19;20031;-78
2022/03/30 02:24:57;;;;;;;68.83;35.47;;;;;;;;;;7373755;19;20504;-81
2022/03/30 02:27:22;;;;;;;64.57;33.72;;;;;;;;;;7382683;19;20282;-78
2022/03/30 02:29:52;;;;;;;66.32;34.80;;;;;;;;;;7348233;19;20081;-79
2022/03/30 02:32:17;;;;;;;67.15;33.22;;;;;;;;;;7364616;19;20007;-79
2022/03/30 02:34:43;;;;;;;65.35;35.67;;;;;;;;;;7386038;19;20017;-78
2022/03/30 02:37:08;;;;;;;64.50;36.42;;;;;;;;;;7379872;19;20354;-80
2022/03/30 02:39:34;;;;;;;64.88;34.67;;;;;;;;;;7382132;19;20014;-80
2022/03/30 02:41:59;;;;;;;67.70;36.45;;;;;;;;;;7362622;19;20007;-82
2022/03/30 02:44:24;;;;;;;74.13;37.63;;;;;;;;;;7382657;19;20549;-78
2022/03/30 02:46:50;;;;;;;71.15;36.65;;;;;;;;;;7370803;19;20478;-81
2022/03/30 02:49:15;;;;;;;74.85;38.03;;;;;;;;;;7377874;19;20014;-77
2022/03/30 02:51:40;;;;;;;75.57;39.17;;;;;;;;;;7373145;19;20398;-78
2022/03/30 02:54:06;;;;;;;82.32;40.58;;;;;;;;;;7383530;19;20279;-79
2022/03/30 02:56:32;;;;;;;74.15;40.30;;;;;;;;;;7373309;19;20006;-78
2022/03/30 02:58:57;;;;;;;77.40;39.60;;;;;;;;;;7384720;19;20025;-77
2022/03/30 03:01:22;;;;;;;81.63;40.53;;;;;;;;;;7370722;19;20264;-79
2022/03/30 03:03:47;;;;;;;73.07;37.93;;;;;;;;;;7353729;19;20117;-81
2022/03/30 03:06:12;;;;;;;78.53;38.45;;;;;;;;;;7381957;19;20298;-80
2022/03/30 03:08:37;;;;;;;91.30;40.40;;;;;;;;;;7368067;19;20010;-78
2022/03/30 03:11:03;;;;;;;76.03;40.20;;;;;;;;;;7366386;19;20263;-78
2022/03/30 03:13:28;;;;;;;85.93;39.20;;;;;;;;;;7374942;19;20010;-78
2022/03/30 03:15:53;;;;;;;84.38;40.63;;;;;;;;;;7379480;19;20094;-77
2022/03/30 03:18:19;;;;;;;82.40;39.85;;;;;;;;;;7359008;19;20014;-80
2022/03/30 03:20:45;;;;;;;79.50;40.15;;;;;;;;;;7366707;19;20031;-79
2022/03/30 03:23:10;;;;;;;82.95;41.30;;;;;;;;;;7383071;19;20007;-80
2022/03/30 03:25:37;;;;;;;76.43;40.58;;;;;;;;;;7370030;19;19999;-79
2022/03/30 03:28:03;;;;;;;93.47;43.53;;;;;;;;;;7375769;19;20371;-79
2022/03/30 03:30:28;;;;;;;86.00;40.30;;;;;;;;;;7366786;19;21701;-78
2022/03/30 03:32:54;;;;;;;84.85;43.20;;;;;;;;;;7351634;19;20018;-79
2022/03/30 03:35:19;;;;;;;96.90;43.38;;;;;;;;;;7382272;19;20022;-79
2022/03/30 03:37:44;;;;;;;89.47;43.17;;;;;;;;;;7377905;19;20353;-80
2022/03/30 03:40:10;;;;;;;90.35;43.40;;;;;;;;;;7378440;19;20018;-80
2022/03/30 03:42:36;;;;;;;90.82;43.60;;;;;;;;;;7366559;19;20002;-78
2022/03/30 03:45:03;;;;;;;95.28;45.92;;;;;;;;;;7381217;19;20022;-80
2022/03/30 03:47:28;;;;;;;84.70;42.25;;;;;;;;;;7350854;19;20027;-81
2022/03/30 03:49:53;;;;;;;87.87;42.57;;;;;;;;;;7366457;19;20018;-79
2022/03/30 03:52:18;;;;;;;90.77;45.30;;;;;;;;;;7366846;19;20817;-79
2022/03/30 03:54:43;;;;;;;91.43;44.10;;;;;;;;;;7381915;19;20299;-78
2022/03/30 03:57:09;;;;;;;87.68;43.13;;;;;;;;;;7376222;19;20272;-78
2022/03/30 03:59:35;;;;;;;92.32;43.72;;;;;;;;;;7380237;19;20014;-80
2022/03/30 04:02:00;;;;;;;88.95;43.53;;;;;;;;;;7330670;19;20006;-80
2022/03/30 04:04:25;;;;;;;91.85;43.45;;;;;;;;;;7378956;19;20026;-79
2022/03/30 04:06:51;;;;;;;92.75;44.15;;;;;;;;;;7374136;19;20007;-80
2022/03/30 04:09:16;;;;;;;88.63;43.27;;;;;;;;;;7375303;19;20046;-78
2022/03/30 04:11:42;;;;;;;100.53;45.97;;;;;;;;;;7364224;19;20765;-83
2022/03/30 04:14:08;;;;;;;97.28;44.60;;;;;;;;;;7330275;19;20270;-80
2022/03/30 04:16:33;;;;;;;91.63;43.72;;;;;;;;;;7373617;19;20015;-80
2022/03/30 04:18:58;;;;;;;89.88;43.95;;;;;;;;;;7362585;19;20010;-78
2022/03/30 04:21:23;;;;;;;86.53;41.60;;;;;;;;;;7377710;19;20006;-79
2022/03/30 04:23:48;;;;;;;91.68;43.50;;;;;;;;;;7375454;19;20750;-79
2022/03/30 04:26:14;;;;;;;84.75;42.35;;;;;;;;;;7352941;19;20854;-79
2022/03/30 04:28:40;;;;;;;83.38;42.35;;;;;;;;;;7379135;19;20018;-78
2022/03/30 04:31:12;;;;;;;87.40;43.13;;;;;;;;;;7375965;19;20070;-79
2022/03/30 04:33:37;;;;;;;93.47;44.97;;;;;;;;;;7364408;19;20466;-80
2022/03/30 04:36:03;;;;;;;93.28;43.55;;;;;;;;;;7376844;19;20010;-79
2022/03/30 04:38:28;;;;;;;90.20;42.63;;;;;;;;;;7373781;19;20009;-79
2022/03/30 04:40:53;;;;;;;87.50;41.40;;;;;;;;;;7367514;19;20374;-78
2022/03/30 04:43:18;;;;;;;87.18;42.92;;;;;;;;;;7362147;19;20003;-80
2022/03/30 04:45:43;;;;;;;90.03;43.07;;;;;;;;;;7368748;19;20014;-83
2022/03/30 04:48:09;;;;;;;87.55;42.05;;;;;;;;;;7348182;19;20687;-78
2022/03/30 04:50:34;;;;;;;88.03;43.07;;;;;;;;;;7373673;19;20014;-78
2022/03/30 04:52:59;;;;;;;90.97;45.13;;;;;;;;;;7354516;19;20339;-80
2022/03/30 04:55:24;;;;;;;84.87;41.43;;;;;;;;;;7369204;19;20007;-78
2022/03/30 04:57:49;;;;;;;82.90;41.38;;;;;;;;;;7366920;19;20283;-83
2022/03/30 05:00:15;;;;;;;85.27;41.27;;;;;;;;;;7354644;19;20006;-82
2022/03/30 05:02:40;;;;;;;81.13;38.90;;;;;;;;;;7323331;19;20301;-79
2022/03/30 05:05:08;;;;;;;77.55;40.13;;;;;;;;;;7373544;19;20874;-78
2022/03/30 05:07:33;;;;;;;84.20;40.13;;;;;;;;;;7364015;19;20010;-79
2022/03/30 05:09:59;;;;;;;78.72;39.15;;;;;;;;;;7370631;19;20018;-78
2022/03/30 05:12:24;;;;;;;76.30;37.05;;;;;;;;;;7360871;19;20006;-79
2022/03/30 05:14:49;;;;;;;76.53;35.47;;;;;;;;;;7362008;19;20007;-77
2022/03/30 05:17:15;;;;;;;75.03;37.13;;;;;;;;;;7351497;19;20829;-81
2022/03/30 05:19:40;;;;;;;74.82;36.75;;;;;;;;;;7351823;19;20003;-79
2022/03/30 05:22:05;;;;;;;81.38;39.50;;;;;;;;;;7367570;19;20020;-78
2022/03/30 05:24:31;;;;;;;83.80;38.83;;;;;;;;;;7357073;19;20255;-81
2022/03/30 05:26:56;;;;;;;84.25;39.65;;;;;;;;;;7328692;19;20327;-80
2022/03/30 05:29:21;;;;;;;86.25;39.63;;;;;;;;;;7335094;19;20033;-79
2022/03/30 05:31:46;;;;;;;80.95;39.63;;;;;;;;;;7341315;19;20607;-82
2022/03/30 05:34:12;;;;;;;83.75;39.33;;;;;;;;;;7329038;19;20624;-82
2022/03/30 05:36:37;;;;;;;79.45;39.72;;;;;;;;;;7325529;19;20084;-77
2022/03/30 05:39:03;;;;;;;88.35;40.63;;;;;;;;;;7364854;19;20010;-80
2022/03/30 05:41:28;;;;;;;86.78;40.17;;;;;;;;;;7364010;19;20468;-82
2022/03/30 05:43:53;;;;;;;82.88;39.63;;;;;;;;;;7354202;19;21002;-83
2022/03/30 05:46:19;;;;;;;85.25;39.78;;;;;;;;;;7340052;19;21071;-81
2022/03/30 05:48:44;;;;;;;83.30;38.95;;;;;;;;;;7358229;19;20283;-79
2022/03/30 05:51:09;;;;;;;81.68;39.38;;;;;;;;;;7358655;19;20009;-80
2022/03/30 05:53:35;;;;;;;76.10;38.20;;;;;;;;;;7364713;19;20002;-78
2022/03/30 05:56:00;;;;;;;75.50;39.00;;;;;;;;;;7372834;19;20089;-79
2022/03/30 05:58:26;;;;;;;71.60;35.88;;;;;;;;;;7357709;19;20010;-81
2022/03/30 06:00:51;;;;;;;76.82;37.08;;;;;;;;;;7375769;19;20037;-78
2022/03/30 06:03:16;;;;;;;71.63;36.70;;;;;;;;;;7364985;19;20707;-78
2022/03/30 06:05:42;;;;;;;79.10;40.08;;;;;;;;;;7350480;19;20014;-80
2022/03/30 06:08:07;;;;;;;74.32;37.90;;;;;;;;;;7353110;19;20407;-82
2022/03/30 06:10:33;;;;;;;81.70;38.47;;;;;;;;;;7268374;19;20528;-83
2022/03/30 06:12:58;;;;;;;77.35;39.38;;;;;;;;;;7343121;19;20011;-80
2022/03/30 06:15:24;;;;;;;73.78;38.10;;;;;;;;;;7314947;19;20034;-78
2022/03/30 06:17:50;;;;;;;84.15;40.13;;;;;;;;;;7363752;19;20450;-78
2022/03/30 06:20:15;;;;;;;73.75;37.03;;;;;;;;;;7367530;19;20030;-79
2022/03/30 06:22:41;;;;;;;76.03;38.67;;;;;;;;;;7373341;19;20003;-78
2022/03/30 06:25:07;;;;;;;76.43;38.45;;;;;;;;;;7375952;19;20014;-80
2022/03/30 06:27:32;;;;;;;81.00;37.42;;;;;;;;;;7364853;19;20592;-83
2022/03/30 06:29:57;;;;;;;73.93;36.97;;;;;;;;;;7354683;19;20013;-83
2022/03/30 06:32:22;;;;;;;74.57;36.35;;;;;;;;;;7333039;19;20014;-79
2022/03/30 06:34:47;;;;;;;79.20;36.72;;;;;;;;;;7365234;19;20025;-76
2022/03/30 06:37:13;;;;;;;67.05;34.90;;;;;;;;;;7375880;19;20066;-77
2022/03/30 06:39:38;;;;;;;71.95;36.13;;;;;;;;;;7374385;19;20021;-76
2022/03/30 06:42:04;;;;;;;71.00;35.65;;;;;;;;;;7377784;19;19999;-77
2022/03/30 06:44:31;;;;;;;70.60;35.25;;;;;;;;;;7364707;19;20466;-78
2022/03/30 06:46:56;;;;;;;68.32;32.85;;;;;;;;;;7365018;19;21425;-82
2022/03/30 06:49:22;;;;;;;69.53;35.25;;;;;;;;;;7365077;19;20002;-78
2022/03/30 06:51:47;;;;;;;62.30;32.38;;;;;;;;;;7359905;19;20027;-76
2022/03/30 06:54:12;;;;;;;68.13;32.65;;;;;;;;;;7377913;19;20015;-78
2022/03/30 06:56:37;;;;;;;64.70;32.08;;;;;;;;;;7381030;19;20388;-76
2022/03/30 06:59:02;;;;;;;65.63;32.95;;;;;;;;;;7386014;19;20010;-77
2022/03/30 07:01:28;;;;;;;65.32;32.63;;;;;;;;;;7370041;19;20011;-78
2022/03/30 07:03:53;;;;;;;64.07;32.50;;;;;;;;;;7370835;19;20510;-77
2022/03/30 07:06:18;;;;;;;61.72;32.17;;;;;;;;;;7370619;19;20006;-78
2022/03/30 07:11:27;;;;;;;66.00;32.42;;;;;;;;;;7382920;19;20033;-77
2022/03/30 07:13:56;;;;;;;67.55;34.20;;;;;;;;;;7383244;19;20045;-80
2022/03/30 07:16:22;;;;;;;63.78;31.05;;;;;;;;;;7368298;19;20007;-77
2022/03/30 07:18:47;;;;;;;69.07;33.17;;;;;;;;;;7371368;19;20286;-79
2022/03/30 07:21:12;;;;;;;64.53;32.42;;;;;;;;;;7386139;19;20022;-78
2022/03/30 07:23:37;;;;;;;67.40;31.17;;;;;;;;;;7378518;19;20381;-78
2022/03/30 07:26:04;;;;;;;69.82;34.97;;;;;;;;;;7381546;19;20037;-77
2022/03/30 07:28:30;;;;;;;71.07;35.30;;;;;;;;;;7365309;19;20074;-78
2022/03/30 07:30:55;;;;;;;73.20;36.15;;;;;;;;;;7370133;19;20026;-79
2022/03/30 07:33:23;;;;;;;75.38;36.20;;;;;;;;;;7373170;19;20561;-80
2022/03/30 07:35:48;;;;;;;79.78;38.40;;;;;;;;;;7373234;19;20082;-77
2022/03/30 07:38:14;;;;;;;80.28;38.30;;;;;;;;;;7346734;19;20391;-80
2022/03/30 07:40:39;;;;;;;80.40;37.78;;;;;;;;;;7364976;19;20455;-77
2022/03/30 07:43:05;;;;;;;73.55;37.00;;;;;;;;;;7382670;19;20015;-77
2022/03/30 07:45:31;;;;;;;79.07;38.40;;;;;;;;;;7376165;19;20371;-77
2022/03/30 07:47:56;;;;;;;81.22;37.10;;;;;;;;;;7361926;19;20389;-79
2022/03/30 07:50:21;;;;;;;74.85;36.10;;;;;;;;;;7375269;19;20468;-78
2022/03/30 07:52:46;;;;;;;75.72;35.83;;;;;;;;;;7358505;19;20530;-80
2022/03/30 07:55:12;;;;;;;76.13;35.25;;;;;;;;;;7378539;19;20006;-77
2022/03/30 07:57:39;;;;;;;74.10;36.50;;;;;;;;;;7372024;19;20037;-77
2022/03/30 08:00:06;;;;;;;76.18;37.17;;;;;;;;;;7370498;19;20037;-81
2022/03/30 08:02:31;;;;;;;71.35;35.30;;;;;;;;;;7332449;19;20014;-81
2022/03/30 08:04:57;;;;;;;72.72;36.03;;;;;;;;;;7377249;19;20074;-77
2022/03/30 08:07:22;;;;;;;79.47;37.37;;;;;;;;;;7372750;19;20010;-78
2022/03/30 08:09:48;;;;;;;70.65;34.95;;;;;;;;;;7366778;19;20293;-78
2022/03/30 08:12:14;;;;;;;75.07;35.55;;;;;;;;;;7377665;19;20443;-80
2022/03/30 08:14:40;;;;;;;67.07;33.00;;;;;;;;;;7361638;19;20025;-77
2022/03/30 08:17:05;;;;;;;61.30;31.55;;;;;;;;;;7364863;19;20497;-81
2022/03/30 08:19:31;;;;;;;72.32;34.53;;;;;;;;;;7376435;19;20049;-78
2022/03/30 08:24:41;;;;;;;58.60;31.17;;;;;;;;;;7384361;19;20519;-78
2022/03/30 08:27:06;;;;;;;62.60;31.95;;;;;;;;;;7361994;19;20014;-78
2022/03/30 08:29:32;;;;;;;60.97;30.25;;;;;;;;;;7384347;19;20014;-80
2022/03/30 08:31:57;;;;;;;59.20;31.23;;;;;;;;;;7365427;19;20951;-77
2022/03/30 08:34:23;;;;;;;55.83;30.35;;;;;;;;;;7381535;19;20010;-78
2022/03/30 08:36:49;;;;;;;55.05;28.10;;;;;;;;;;7375866;19;20018;-78
2022/03/30 08:39:14;;;;;;;56.70;29.50;;;;;;;;;;7384478;19;20007;-77
2022/03/30 08:41:43;;;;;;;52.65;28.23;;;;;;;;;;7371673;19;20037;-77
2022/03/30 08:44:09;;;;;;;53.03;27.90;;;;;;;;;;7382689;19;20014;-79
2022/03/30 08:46:34;;;;;;;58.03;28.90;;;;;;;;;;7369297;19;20027;-78
2022/03/30 08:48:59;;;;;;;57.42;27.67;;;;;;;;;;7366671;19;20030;-78
2022/03/30 08:51:24;;;;;;;50.80;26.07;;;;;;;;;;7386293;19;20456;-77
2022/03/30 08:53:49;;;;;;;49.17;26.30;;;;;;;;;;7368536;19;20387;-81
2022/03/30 08:56:14;;;;;;;56.72;28.70;;;;;;;;;;7382881;19;20352;-77
2022/03/30 08:58:41;;;;;;;49.60;28.63;;;;;;;;;;7369364;19;20007;-78
2022/03/30 09:01:07;;;;;;;52.25;27.38;;;;;;;;;;7382577;19;20274;-78
2022/03/30 09:03:32;;;;;;;51.17;27.40;;;;;;;;;;7367795;19;20469;-77
2022/03/30 09:05:58;;;;;;;53.83;28.95;;;;;;;;;;7380862;19;20071;-81
2022/03/30 09:08:27;;;;;;;50.08;26.17;;;;;;;;;;7373255;19;20022;-79
2022/03/30 09:10:54;;;;;;;50.70;26.00;;;;;;;;;;7368936;19;20029;-77
2022/03/30 09:13:19;;;;;;;47.28;25.60;;;;;;;;;;7381098;19;20014;-77
2022/03/30 09:15:46;;;;;;;46.13;24.45;;;;;;;;;;7378366;19;20003;-78
2022/03/30 09:18:14;;;;;;;43.30;23.42;;;;;;;;;;7369736;19;20007;-78
2022/03/30 09:20:40;;;;;;;44.78;23.08;;;;;;;;;;7368620;19;20035;-78
2022/03/30 09:23:07;;;;;;;41.75;22.88;;;;;;;;;;7385513;19;20342;-78
2022/03/30 09:25:32;;;;;;;41.15;23.45;;;;;;;;;;7376858;19;20018;-77
2022/03/30 09:27:59;;;;;;;41.92;23.45;;;;;;;;;;7372399;19;20017;-80
2022/03/30 09:30:25;;;;;;;40.78;22.27;;;;;;;;;;7371804;19;20678;-77
2022/03/30 09:32:52;;;;;;;40.20;22.50;;;;;;;;;;7368428;19;20101;-78
2022/03/30 09:35:33;;;;;;;38.92;19.85;;;;;;;;;;7383409;19;20007;-79
2022/03/30 09:38:18;;;;;;;39.65;19.10;;;;;;;;;;7377612;19;20003;-77
2022/03/30 09:40:48;;;;;;;38.30;21.23;;;;;;;;;;7370086;19;20082;-79
2022/03/30 09:43:15;;;;;;;36.78;20.58;;;;;;;;;;7363915;19;20014;-77
2022/03/30 09:45:41;;;;;;;43.97;21.65;;;;;;;;;;7381276;19;20011;-78
2022/03/30 09:48:15;;;;;;;36.20;20.08;;;;;;;;;;7358099;19;20018;-80
2022/03/30 09:50:51;;;;;;;40.67;20.58;;;;;;;;;;7382220;19;20006;-80
2022/03/30 09:53:17;;;;;;;38.50;21.73;;;;;;;;;;7371354;19;20011;-78
2022/03/30 09:56:00;;;;;;;36.97;20.70;;;;;;;;;;7367988;19;20463;-79
2022/03/30 09:58:27;;;;;;;38.78;21.02;;;;;;;;;;7382515;19;20011;-79
2022/03/30 10:01:05;;;;;;;41.22;21.15;;;;;;;;;;7376302;19;20453;-79
2022/03/30 10:03:37;;;;;;;45.35;21.20;;;;;;;;;;7355346;19;20010;-79
2022/03/30 10:06:03;;;;;;;40.83;22.55;;;;;;;;;;7366034;19;20011;-80
2022/03/30 10:08:28;;;;;;;34.20;19.25;;;;;;;;;;7383772;19;20033;-80
2022/03/30 10:10:54;;;;;;;39.28;21.25;;;;;;;;;;7362293;19;20378;-79
2022/03/30 10:13:19;;;;;;;33.08;18.75;;;;;;;;;;7371825;19;20053;-83
2022/03/30 10:15:45;;;;;;;33.38;16.58;;;;;;;;;;7350751;19;20014;-81
2022/03/30 10:18:10;;;;;;;31.92;16.42;;;;;;;;;;7335612;19;20782;-80
2022/03/30 10:20:35;;;;;;;31.17;16.60;;;;;;;;;;7374848;19;20017;-79
2022/03/30 10:23:13;;;;;;;30.55;16.65;;;;;;;;;;7372898;19;20620;-79
2022/03/30 10:25:51;;;;;;;34.80;17.45;;;;;;;;;;7362885;19;20010;-78
2022/03/30 10:28:25;;;;;;;34.83;17.55;;;;;;;;;;7366304;19;20090;-83
2022/03/30 10:30:54;;;;;;;34.35;18.13;;;;;;;;;;7386481;19;20066;-79
2022/03/30 10:33:32;;;;;;;35.63;18.70;;;;;;;;;;7372168;19;20021;-79
2022/03/30 10:35:58;;;;;;;38.35;20.15;;;;;;;;;;7382498;19;20046;-81
2022/03/30 10:38:23;;;;;;;36.00;18.85;;;;;;;;;;7373860;19;20138;-80
2022/03/30 10:41:05;;;;;;;34.00;18.63;;;;;;;;;;7373959;19;20014;-79
2022/03/30 10:43:30;;;;;;;32.63;18.52;;;;;;;;;;7375951;19;20006;-77
2022/03/30 10:45:57;;;;;;;37.20;19.33;;;;;;;;;;7382869;19;20002;-81
2022/03/30 10:48:23;;;;;;;36.28;20.20;;;;;;;;;;7375994;19;20122;-80
2022/03/30 10:50:48;;;;;;;36.80;18.85;;;;;;;;;;7368708;19;20484;-82
2022/03/30 10:53:35;;;;;;;35.87;19.70;;;;;;;;;;7372592;19;20006;-79
2022/03/30 10:56:09;;;;;;;36.33;19.00;;;;;;;;;;7384697;19;20302;-81
2022/03/30 10:58:35;;;;;;;35.17;19.52;;;;;;;;;;7381414;19;20376;-80
2022/03/30 11:01:13;;;;;;;35.80;19.35;;;;;;;;;;7371882;19;20017;-80
2022/03/30 11:03:54;;;;;;;37.15;19.25;;;;;;;;;;7359260;19;20104;-77
2022/03/30 11:06:20;;;;;;;34.92;19.23;;;;;;;;;;7382730;19;20038;-81
2022/03/30 11:08:48;;;;;;;34.95;20.40;;;;;;;;;;7337074;19;20003;-79
2022/03/30 11:11:26;;;;;;;36.80;19.00;;;;;;;;;;7379633;19;20010;-82
2022/03/30 11:14:11;;;;;;;38.92;19.20;;;;;;;;;;7367932;19;20546;-79
2022/03/30 11:16:49;;;;;;;34.63;19.25;;;;;;;;;;7380797;19;20007;-77
2022/03/30 11:19:14;;;;;;;34.15;19.05;;;;;;;;;;7378086;19;20494;-79
2022/03/30 11:21:51;;;;;;;34.75;19.05;;;;;;;;;;7365474;19;20494;-80
2022/03/30 11:24:20;;;;;;;33.78;18.45;;;;;;;;;;7370226;19;20010;-79
2022/03/30 11:26:48;;;;;;;37.08;19.05;;;;;;;;;;7374481;19;20070;-76
2022/03/30 11:29:32;;;;;;;36.33;19.52;;;;;;;;;;7304982;19;20006;-83
2022/03/30 11:31:57;;;;;;;35.40;18.67;;;;;;;;;;7267157;19;22000;-81
2022/03/30 11:34:36;;;;;;;33.20;17.10;;;;;;;;;;7336560;19;20421;-79
2022/03/30 11:37:01;;;;;;;34.20;16.77;;;;;;;;;;7382141;19;20481;-81
2022/03/30 11:39:32;;;;;;;34.78;16.83;;;;;;;;;;7342501;19;20015;-81
2022/03/30 11:41:59;;;;;;;31.90;17.67;;;;;;;;;;7362606;19;20037;-83
2022/03/30 11:47:16;;;;;;;31.95;16.02;;;;;;;;;;7317223;19;20756;-82
2022/03/30 11:49:50;;;;;;;32.95;17.08;;;;;;;;;;7361771;19;20763;-77
2022/03/30 11:52:16;;;;;;;36.58;18.48;;;;;;;;;;7377873;19;20458;-79
2022/03/30 11:54:48;;;;;;;29.63;16.63;;;;;;;;;;7371952;19;20003;-78
2022/03/30 11:57:15;;;;;;;28.38;17.15;;;;;;;;;;7384011;19;20011;-78
2022/03/30 11:59:40;;;;;;;32.25;17.50;;;;;;;;;;7367822;19;20517;-77
2022/03/30 12:02:05;;;;;;;33.72;15.73;;;;;;;;;;7350886;19;20026;-81
2022/03/30 12:04:31;;;;;;;29.25;15.90;;;;;;;;;;7377003;19;20006;-82
2022/03/30 12:06:56;;;;;;;28.65;16.23;;;;;;;;;;7376654;19;20007;-81
2022/03/30 12:09:22;;;;;;;29.83;15.90;;;;;;;;;;7370818;19;20513;-78
2022/03/30 12:11:47;;;;;;;29.23;16.08;;;;;;;;;;7380130;19;20610;-81
2022/03/30 12:14:24;;;;;;;31.37;15.73;;;;;;;;;;7371427;19;20018;-81
2022/03/30 12:16:49;;;;;;;29.45;16.13;;;;;;;;;;7371356;19;20593;-81
2022/03/30 12:19:16;;;;;;;28.97;16.63;;;;;;;;;;7348679;19;20030;-80
2022/03/30 12:21:41;;;;;;;27.42;16.10;;;;;;;;;;7385541;19;20028;-79
2022/03/30 12:24:09;;;;;;;30.02;16.45;;;;;;;;;;7368628;19;20011;-78
2022/03/30 12:26:34;;;;;;;28.95;15.40;;;;;;;;;;7383548;19;20006;-79
2022/03/30 12:29:07;;;;;;;27.73;16.00;;;;;;;;;;7373094;19;20825;-77
2022/03/30 12:31:36;;;;;;;27.27;15.07;;;;;;;;;;7383318;19;20077;-79
2022/03/30 12:34:11;;;;;;;31.33;16.13;;;;;;;;;;7359694;19;22174;-79
2022/03/30 12:36:45;;;;;;;26.85;15.73;;;;;;;;;;7380518;19;20463;-78
2022/03/30 12:39:10;;;;;;;;;;;;;;;;;;7383218;19;20821;-77
2022/03/30 12:41:35;;;;;;;25.27;14.63;;;;;;;;;;7381961;19;20293;-80
2022/03/30 12:44:01;;;;;;;27.50;15.37;;;;;;;;;;7372812;19;20098;-78
2022/03/30 12:46:30;;;;;;;30.20;15.65;;;;;;;;;;7385788;19;20300;-80
2022/03/30 12:49:02;;;;;;;30.08;16.15;;;;;;;;;;7370796;19;20018;-78
2022/03/30 12:51:30;;;;;;;27.55;14.40;;;;;;;;;;7362641;19;20626;-82
2022/03/30 12:53:55;;;;;;;32.25;15.43;;;;;;;;;;7349836;19;20074;-79
2022/03/30 12:56:22;;;;;;;28.98;15.50;;;;;;;;;;7372792;19;20014;-80
2022/03/30 12:58:49;;;;;;;32.58;15.85;;;;;;;;;;7364747;19;20006;-80
2022/03/30 13:01:26;;;;;;;24.23;14.57;;;;;;;;;;7350296;19;20026;-78
2022/03/30 13:03:52;;;;;;;27.35;15.50;;;;;;;;;;7354711;19;20025;-80
2022/03/30 13:06:19;;;;;;;33.58;17.00;;;;;;;;;;7371670;19;20007;-80
2022/03/30 13:09:01;;;;;;;29.63;15.98;;;;;;;;;;7372803;19;20707;-79
2022/03/30 13:11:26;;;;;;;32.22;15.90;;;;;;;;;;7344986;19;20367;-80
2022/03/30 13:13:51;;;;;;;28.80;16.07;;;;;;;;;;7377013;19;20002;-79
2022/03/30 13:16:17;;;;;;;35.63;19.93;;;;;;;;;;7372173;19;20507;-79
2022/03/30 13:18:58;;;;;;;31.83;18.35;;;;;;;;;;7357217;19;20647;-80
2022/03/30 13:21:23;;;;;;;38.72;19.27;;;;;;;;;;7375683;19;20006;-80
2022/03/30 13:23:49;;;;;;;33.10;17.20;;;;;;;;;;7370172;19;20019;-81
2022/03/30 13:26:31;;;;;;;29.08;17.67;;;;;;;;;;7347835;19;20285;-78
2022/03/30 13:28:57;;;;;;;34.58;19.55;;;;;;;;;;7381388;19;20007;-78
2022/03/30 13:31:22;;;;;;;32.50;17.52;;;;;;;;;;7373483;19;20025;-79
2022/03/30 13:33:48;;;;;;;35.78;18.33;;;;;;;;;;7370598;19;20051;-80
2022/03/30 13:36:13;;;;;;;32.22;19.73;;;;;;;;;;7367653;19;20094;-83
2022/03/30 13:38:39;;;;;;;38.75;19.85;;;;;;;;;;7376114;19;20045;-80
2022/03/30 13:41:04;;;;;;;35.00;19.77;;;;;;;;;;7351981;19;21038;-79
2022/03/30 13:43:29;;;;;;;33.30;18.93;;;;;;;;;;7354985;19;21742;-77
2022/03/30 13:45:54;;;;;;;35.60;20.27;;;;;;;;;;7344148;19;20007;-76
2022/03/30 13:48:19;;;;;;;39.22;21.00;;;;;;;;;;7331475;19;20699;-79
2022/03/30 13:50:47;;;;;;;38.27;21.40;;;;;;;;;;7352048;19;20006;-77
2022/03/30 13:53:12;;;;;;;39.45;22.08;;;;;;;;;;7331539;19;20272;-79
2022/03/30 13:55:37;;;;;;;35.78;19.92;;;;;;;;;;7373157;19;20374;-77
2022/03/30 13:58:04;;;;;;;34.25;19.77;;;;;;;;;;7329575;19;20517;-77
2022/03/30 14:00:29;;;;;;;32.80;19.58;;;;;;;;;;7341978;19;20010;-78
2022/03/30 14:02:55;;;;;;;33.53;19.42;;;;;;;;;;7321827;19;20015;-80
2022/03/30 14:05:21;;;;;;;34.20;19.27;;;;;;;;;;7377556;19;20026;-77
2022/03/30 14:07:46;;;;;;;34.37;19.43;;;;;;;;;;7352310;19;20014;-78
2022/03/30 14:10:11;;;;;;;35.33;20.80;;;;;;;;;;7385409;19;20279;-77
2022/03/30 14:12:36;;;;;;;38.23;22.13;;;;;;;;;;7381938;19;20078;-78
2022/03/30 14:15:02;;;;;;;37.63;22.63;;;;;;;;;;7379381;19;20262;-78
2022/03/30 14:17:27;;;;;;;38.92;21.40;;;;;;;;;;7324101;19;21536;-80
2022/03/30 14:19:52;;;;;;;36.60;21.13;;;;;;;;;;7355152;19;20022;-77
2022/03/30 14:22:18;;;;;;;33.83;20.13;;;;;;;;;;7378198;19;20311;-77
2022/03/30 14:24:44;;;;;;;34.88;20.13;;;;;;;;;;7359239;19;20011;-78